• Join FlightAware (Why Join?)
  • Login
  • US Flag 
08:44AM EDT


 

Airport Tracker/Info


-or-


 

Live Flight TrackerFlight Track Log ✈ N577XW ✈ 19-Apr-2013 ✈ KRDU - KTUL

Flight Track Log - Related Links

Times and Time Zones

All times are in EDT time to prevent confusion due to time zone crossing. See the N577XW flight status page for this flight to view local times or setup timezone preferences in your user account.

Time Position Orientation Groundspeed Altitude Reporting Facility
EDT Latitude Longitude Course Direction KTS MPH feet Rate Location/Type
01:21PM 35.8542 -78.8083 203° Southwest 184 212 1,300  Level Washington Center
01:23PM 35.7992 -78.8367 203° Southwest 191 220 5,300 2,520 Climbing Washington Center
01:24PM 35.8036 -78.9061 275° West 161 185 7,000 840 Climbing Washington Center
01:25PM 35.8303 -78.9892 292° West 199 229 7,000 660 Level Washington Center
01:26PM 35.8281 -79.0711 268° West 225 259 8,400 1,620 Climbing Washington Center
01:27PM 35.8111 -79.1497 255° West 236 272 10,300 1,920 Climbing Washington Center
01:28PM 35.7797 -79.2225 242° Southwest 241 277 12,300 1,740 Climbing Washington Center
01:29PM 35.7647 -79.3064 258° West 252 290 13,800 1,560 Climbing Washington Center
01:30PM 35.7847 -79.3969 285° West 266 306 15,500 1,500 Climbing Washington Center
01:31PM 35.8078 -79.5628 280° West 274 315 18,100 1,260 Climbing Atlanta Center
01:32PM 35.8175 -79.6597 277° West 280 322 19,000 900 Climbing Atlanta Center
01:33PM 35.8214 -79.7694 273° West 296 341 20,000 1,080 Climbing Atlanta Center
01:34PM 35.8292 -79.8792 275° West 309 356 21,200 1,200 Climbing Atlanta Center
01:35PM 35.8367 -79.9736 276° West 322 371 22,400 1,260 Climbing Atlanta Center
01:36PM 35.8442 -80.0758 275° West 316 364 23,800 1,320 Climbing Atlanta Center
01:37PM 35.8494 -80.1756 274° West 306 352 25,100 1,080 Climbing Atlanta Center
01:38PM 35.8567 -80.2750 275° West 306 352 26,000 420 Climbing Atlanta Center
01:39PM 35.8683 -80.3847 278° West 316 364 26,000  Level Atlanta Center
01:40PM 35.8758 -80.4997 275° West 334 384 26,000  Level Atlanta Center
01:41PM 35.9044 -80.6267 286° West 345 397 26,000  Level Atlanta Center
01:42PM 35.9369 -80.7483 288° West 362 417 26,000  Level Atlanta Center
01:43PM 35.9672 -80.8703 287° West 367 422 26,000  Level Atlanta Center
01:44PM 35.9892 -80.9875 283° West 367 422 26,000  Level Atlanta Center
01:45PM 36.0044 -81.1050 279° West 361 415 26,000  Level Atlanta Center
01:46PM 36.0239 -81.2222 282° West 354 407 26,000  Level Atlanta Center
01:47PM 36.0453 -81.3397 283° West 354 407 26,000  Level Atlanta Center
01:48PM 36.0414 -81.4553 268° West 349 402 26,000  Level Atlanta Center
01:49PM 36.0292 -81.5686 262° West 344 396 26,000  Level Atlanta Center
01:50PM 36.0086 -81.6822 257° West 344 396 26,000  Level Atlanta Center
01:51PM 35.9878 -81.7983 258° West 349 402 26,000  Level Atlanta Center
01:52PM 35.9647 -81.9119 256° West 354 407 26,000  Level Atlanta Center
01:53PM 35.9436 -82.0278 257° West 349 402 26,000  Level Atlanta Center
01:54PM 35.9436 -82.1483 270° West 356 410 26,000  Level Atlanta Center
01:55PM 35.9242 -82.2514 257° West 350 403 26,000  Level Atlanta Center
01:56PM 35.9050 -82.3697 259° West 350 403 26,000  Level Atlanta Center
01:57PM 35.9089 -82.5006 272° West 356 410 26,000  Level Atlanta Center
01:58PM 35.9167 -82.6208 275° West 351 404 26,000  Level Atlanta Center
01:59PM 35.9242 -82.7386 275° West 351 404 26,000 300 Level Atlanta Center
02:00PM 35.9336 -82.8514 276° West 344 396 26,700 900 Climbing Atlanta Center
02:01PM 35.9408 -82.9589 275° West 332 382 27,800 1,020 Climbing Atlanta Center
02:02PM 35.9500 -83.0614 276° West 315 362 28,800 900 Climbing Atlanta Center
02:03PM 35.9550 -83.1639 273° West 309 356 29,700 1,020 Climbing Atlanta Center
02:04PM 35.9661 -83.2639 278° West 309 356 30,900 1,200 Climbing Atlanta Center
02:05PM 35.9708 -83.3639 273° West 304 350 32,100 1,080 Climbing Atlanta Center
02:06PM 35.9778 -83.4614 275° West 299 344 33,100 660 Climbing Atlanta Center
02:07PM 35.9864 -83.5639 276° West 299 344 33,500 420 Climbing Atlanta Center
02:08PM 35.9931 -83.6717 274° West 305 351 34,000 840 Climbing Atlanta Center
02:09PM 35.9997 -83.7769 275° West 313 360 35,200 960 Climbing Atlanta Center
02:10PM 36.0061 -83.8769 275° West 307 353 36,000 360 Climbing Atlanta Center
02:11PM 36.0144 -83.9797 276° West 301 346 36,000  Level Atlanta Center
02:12PM 36.0208 -84.0925 274° West 313 360 36,000  Level Atlanta Center
02:13PM 36.0269 -84.2006 274° West 323 372 36,000  Level Atlanta Center
02:14PM 36.0350 -84.3136 275° West 329 379 36,000  Level Atlanta Center
02:15PM 36.0411 -84.4292 274° West 334 384 36,000  Level Atlanta Center
02:16PM 36.0489 -84.5394 275° West 334 384 36,000  Level Atlanta Center
02:17PM 36.0547 -84.6578 274° West 334 384 36,000  Level Atlanta Center
02:18PM 36.0622 -84.7758 275° West 334 384 36,000  Level Atlanta Center
02:20PM 36.0761 -85.0000 274° West 350 403 36,000  Level Memphis Center
02:21PM 36.0833 -85.1178 274° West 350 403 36,000 420 Level Memphis Center
02:22PM 36.0881 -85.2278 273° West 344 396 36,900 900 Climbing Memphis Center
02:23PM 36.0922 -85.3328 273° West 326 375 37,900 540 Climbing Memphis Center
02:24PM 36.0983 -85.4353 274° West 308 354 38,000  Climbing Memphis Center
02:25PM 36.1047 -85.5403 274° West 308 354 38,000  Level Memphis Center
02:26PM 36.1086 -85.6453 273° West 308 354 38,000  Level Memphis Center
02:27PM 36.1150 -85.7556 274° West 313 360 38,000  Level Memphis Center
02:28PM 36.1208 -85.8631 274° West 313 360 38,000  Level Memphis Center
02:29PM 36.1269 -85.9706 274° West 313 360 38,000  Level Memphis Center
02:30PM 36.1306 -86.0783 272° West 313 360 38,000  Level Memphis Center
02:31PM 36.1364 -86.1886 274° West 318 366 38,000  Level Memphis Center
02:32PM 36.1419 -86.2936 274° West 318 366 38,000  Level Memphis Center
02:33PM 36.1458 -86.4092 272° West 312 359 38,000  Level Memphis Center
02:34PM 36.1511 -86.5142 274° West 307 353 38,000  Level Memphis Center
02:35PM 36.1544 -86.6219 272° West 307 353 38,000  Level Memphis Center
02:36PM 36.1597 -86.7322 273° West 307 353 38,000  Level Memphis Center
02:37PM 36.1608 -86.8403 271° West 312 359 38,000  Level Memphis Center
02:38PM 36.1658 -86.9506 273° West 318 366 38,000  Level Memphis Center
02:39PM 36.1708 -87.0506 274° West 318 366 38,000  Level Memphis Center
02:40PM 36.1778 -87.1558 275° West 325 374 38,000  Level Memphis Center
02:41PM 36.1825 -87.2686 273° West 325 374 38,000  Level Memphis Center
02:42PM 36.1853 -87.3767 272° West 325 374 38,000  Level Memphis Center
02:43PM 36.1900 -87.4947 273° West 325 374 38,000  Level Memphis Center
02:44PM 36.1925 -87.6053 272° West 325 374 38,000  Level Memphis Center
02:45PM 36.1992 -87.7131 274° West 325 374 38,000  Level Memphis Center
02:46PM 36.2014 -87.8211 271° West 325 374 38,000  Level Memphis Center
02:47PM 36.2056 -87.9314 273° West 325 374 38,000  Level Memphis Center
02:48PM 36.2100 -88.0419 273° West 325 374 38,000  Level Memphis Center
02:49PM 36.2161 -88.1472 274° West 325 374 38,000  Level Memphis Center
02:50PM 36.2178 -88.2578 271° West 325 374 38,000  Level Memphis Center
02:51PM 36.2219 -88.3708 273° West 325 374 38,000  Level Memphis Center
02:52PM 36.2236 -88.4789 271° West 325 374 38,000  Level Memphis Center
02:53PM 36.2272 -88.5919 272° West 325 374 38,000  Level Memphis Center
02:54PM 36.2289 -88.7053 271° West 325 374 38,000  Level Memphis Center
02:55PM 36.2322 -88.8131 272° West 325 374 38,000  Level Memphis Center
02:56PM 36.2336 -88.9264 271° West 325 374 38,000  Level Memphis Center
02:57PM 36.2350 -89.0344 271° West 325 374 38,000  Level Memphis Center
02:58PM 36.2361 -89.1450 271° West 325 374 38,000  Level Memphis Center
02:59PM 36.2369 -89.2531 271° West 325 374 38,000  Level Memphis Center
03:00PM 36.2381 -89.3664 271° West 325 374 38,000  Level Memphis Center
03:01PM 36.2428 -89.4639 273° West 325 374 38,000 -300 Level Memphis Center
03:02PM 36.2458 -89.5747 272° West 325 374 37,500 -720 Descending Memphis Center
03:03PM 36.2486 -89.6878 272° West 325 374 36,600 -840 Descending Memphis Center
03:04PM 36.2511 -89.8061 272° West 337 388 35,900 -840 Descending Memphis Center
03:05PM 36.2517 -89.9244 270° West 342 394 35,000 -900 Descending Memphis Center
03:06PM 36.2542 -90.0431 272° West 348 400 34,100 -540 Descending Memphis Center
03:07PM 36.2564 -90.1639 271° West 348 400 34,000 -60 Descending Memphis Center
03:08PM 36.2567 -90.2797 270° West 348 400 34,000  Level Memphis Center
03:09PM 36.2586 -90.3981 271° West 348 400 34,000  Level Memphis Center
03:10PM 36.2606 -90.5139 271° West 348 400 34,000  Level Memphis Center
03:11PM 36.2606 -90.6297 270° West 348 400 34,000  Level Memphis Center
03:12PM 36.2622 -90.7406 271° West 341 392 34,000  Level Memphis Center
03:13PM 36.2619 -90.8539 270° West 336 387 34,000 -240 Level Memphis Center
03:14PM 36.2717 -90.9697 276° West 336 387 33,600 -780 Descending Memphis Center
03:15PM 36.2983 -91.0883 286° West 349 402 32,500 -840 Descending Memphis Center
03:16PM 36.3267 -91.2069 287° West 355 409 32,000 -300 Descending Memphis Center
03:17PM 36.3550 -91.3233 287° West 355 409 32,000 -480 Level Memphis Center
03:18PM 36.3833 -91.4369 287° West 355 409 31,100 -960 Descending Memphis Center
03:19PM 36.3864 -91.5583 272° West 355 409 30,100 -1,020 Descending Memphis Center
03:20PM 36.3831 -91.6794 268° West 350 403 29,100 -1,020 Descending Memphis Center
03:21PM 36.3839 -91.8006 271° West 344 396 28,100 -600 Descending Memphis Center
03:22PM 36.3803 -91.9164 268° West 344 396 28,000 -600 Descending Memphis Center
03:23PM 36.3767 -92.0350 268° West 344 396 27,000 -1,020 Descending Memphis Center
03:24PM 36.3708 -92.1533 267° West 344 396 26,000 -540 Descending Memphis Center
03:25PM 36.3672 -92.2692 268° West 344 396 26,000  Level Memphis Center
03:26PM 36.3631 -92.3853 267° West 344 396 26,000  Level Memphis Center
03:27PM 36.3592 -92.5011 268° West 344 396 26,000  Level Memphis Center
03:28PM 36.3550 -92.6194 268° West 344 396 26,000  Level Memphis Center
03:29PM 36.3528 -92.7328 269° West 344 396 26,000  Level Memphis Center
03:30PM 36.3486 -92.8486 267° West 344 396 26,000  Level Memphis Center
03:31PM 36.3419 -92.9644 266° West 344 396 26,000  Level Memphis Center
03:32PM 36.3394 -93.0803 268° West 344 396 26,000  Level Memphis Center
03:33PM 36.3328 -93.1958 266° West 344 396 26,000  Level Memphis Center
03:34PM 36.3281 -93.3142 267° West 344 396 26,000  Level Memphis Center
03:35PM 36.3231 -93.4325 267° West 344 396 26,000 -360 Level Memphis Center
03:36PM 36.3200 -93.5483 268° West 344 396 25,400 -780 Descending Memphis Center
03:37PM 36.3150 -93.6614 267° West 344 396 24,500 -720 Descending Memphis Center
03:38PM 36.3117 -93.7875 268° West 344 396 24,000 -900 Descending Memphis Center
03:39PM 36.3086 -93.8981 268° West 339 390 22,800 -1,140 Descending Memphis Center
03:40PM 36.3014 -94.0061 265° West 327 376 21,800 -960 Descending Memphis Center
03:41PM 36.2981 -94.1164 268° West 327 376 20,900 -960 Descending Memphis Center
03:42PM 36.2925 -94.2244 266° West 327 376 19,900 -960 Descending Memphis Center
03:43PM 36.2872 -94.3297 266° West 322 371 19,000 -900 Descending Memphis Center
03:44PM 36.2794 -94.4375 265° West 322 371 18,100 -840 Descending Memphis Center
03:45PM 36.2761 -94.5378 268° West 310 357 17,400 -900 Descending Memphis Center
03:46PM 36.2706 -94.6403 266° West 304 350 16,400 -960 Descending Memphis Center
03:47PM 36.2650 -94.7431 266° West 304 350 15,500 -900 Descending Memphis Center
03:49PM 36.2583 -94.8628 266° West 289 333 14,400 -900 Descending Kansas City Center
03:50PM 36.2528 -94.9619 266° West 287 330 13,500 -900 Descending Kansas City Center
03:52PM 36.2417 -95.1616 266° West  Level Estimated
03:59PM 36.1984 -95.8881 266° West  Level Estimated
04:00PM 36.1984 -95.8881 219° Southwest  Level Estimated
04:01PM 36.1984 -95.8881 219° Southwest  Level Estimated
04:02PM 36.1984 -95.8881 219° Southwest  Level Estimated
04:03PM 36.1984 -95.8881 219° Southwest  Level Estimated
04:04PM 36.1984 -95.8881 219° Southwest  Level Estimated
04:05PM 36.1984 -95.8881 219° Southwest  Level Estimated
04:06PM 36.1984 -95.8881 219° Southwest  Level Estimated
04:07PM 36.1984 -95.8881 219° Southwest  Level Estimated
04:08PM 36.1984 -95.8881 219° Southwest  Level Estimated
04:09PM 36.1984 -95.8881 219° Southwest  Level Estimated
04:10PM 36.1984 -95.8881 219° Southwest  Level Estimated
04:11PM 36.1984 -95.8881 219° Southwest  Level Estimated
04:12PM 36.1984 -95.8881 219° Southwest  Level Estimated
04:13PM 36.1984 -95.8881 219° Southwest  Level Estimated